Date,TemperatureHighF,TemperatureAvgF,TemperatureLowF,DewpointHighF,DewpointAvgF,DewpointLowF,HumidityHigh,HumidityAvg,HumidityLow,PressureMaxIn,PressureMinIn,WindSpeedMaxMPH,WindSpeedAvgMPH,GustSpeedMaxMPH,PrecipitationSumIn
2013-6-13,69,69,68,69,69,68,98,98,98,29.86,29.84,1,0,2,0.00
2013-6-14,91,76,65,69,65,60,99,72,40,29.98,29.84,3,0,8,0.00
2013-6-15,87,75,64,67,63,60,94,70,41,30.11,29.98,2,0,5,0.00
2013-6-16,89,76,63,74,68,61,95,76,55,30.13,29.99,3,0,9,0.20
2013-6-17,86,73,68,76,70,67,99,92,69,30.09,29.92,1,0,4,0.22
2013-6-18,85,73,68,76,71,67,99,93,69,29.96,29.84,6,1,14,1.01
2013-6-19,85,74,68,73,70,67,99,86,61,30.06,29.89,3,0,7,0.00
2013-6-20,86,75,66,71,67,65,99,78,56,30.17,30.06,4,0,13,0.00
2013-6-21,88,75,65,69,66,64,96,74,49,30.22,30.12,5,0,7,0.00
2013-6-22,88,75,65,68,65,62,95,72,43,30.20,30.07,2,0,7,0.00
2013-6-23,89,76,67,74,69,66,97,81,52,30.18,30.07,2,0,6,0.00
2013-6-24,85,76,70,74,71,69,98,84,64,30.20,30.09,2,0,7,0.00
2013-6-25,88,77,69,76,72,68,98,83,55,30.14,30.02,2,0,9,0.07
2013-6-26,90,80,71,78,73,70,98,81,55,30.07,29.91,6,0,10,0.20
2013-6-27,88,80,73,77,74,70,98,81,63,29.96,29.79,6,1,13,0.39
2013-6-28,93,81,71,78,72,66,99,77,50,29.84,29.63,5,1,9,0.00
2013-6-29,89,79,72,72,70,64,95,74,44,29.69,29.62,2,0,8,0.00
2013-6-30,86,77,68,72,69,65,98,78,51,29.77,29.67,4,0,4,0.00
2013-7-1,86,74,68,74,70,66,97,87,61,29.90,29.75,2,0,5,0.69
2013-7-2,83,75,69,75,71,69,98,86,67,30.05,29.89,2,0,5,0.05
2013-7-3,75,71,67,74,70,67,99,96,90,30.15,30.03,3,0,7,1.39
2013-7-4,75,71,67,74,70,67,100,98,96,30.16,30.07,2,0,7,0.90
2013-7-5,83,73,69,76,71,69,99,95,72,30.19,30.11,2,0,4,0.65
2013-7-6,83,74,69,78,72,69,100,95,79,30.15,30.05,1,0,5,0.30
2013-7-7,79,74,71,76,73,71,100,96,85,30.16,30.09,2,0,2,0.13
2013-7-8,92,78,71,77,73,71,100,87,56,30.18,30.07,2,0,6,0.00
2013-7-9,91,79,72,79,74,71,98,85,55,30.15,30.03,4,0,6,0.00
2013-7-10,90,79,74,79,75,72,98,86,62,30.08,29.93,2,0,8,0.01
2013-7-11,82,75,71,75,73,69,97,92,77,29.95,29.85,1,0,3,0.04
2013-7-12,91,77,68,77,73,67,99,88,58,29.93,29.82,3,0,8,0.24
2013-7-13,78,72,67,73,70,67,98,92,82,30.05,29.92,5,0,11,0.00
2013-7-14,85,76,72,76,73,71,97,90,72,30.18,30.03,6,1,10,0.11
2013-7-15,86,77,71,76,72,70,98,86,66,30.26,30.16,8,1,14,0.00
2013-7-16,90,79,70,74,72,69,97,81,56,30.29,30.21,3,0,7,0.00
2013-7-17,94,77,69,78,72,69,98,85,52,30.27,30.11,3,0,13,0.87
2013-7-18,91,78,68,77,72,67,100,84,55,30.18,30.03,1,0,4,0.01
2013-7-19,93,80,72,78,74,71,99,82,52,30.10,29.95,2,0,4,0.00
2013-7-20,87,75,71,77,72,70,99,90,65,30.02,29.92,4,0,6,0.62
2013-7-21,92,76,71,76,73,71,99,90,53,30.02,29.90,3,0,9,0.27
2013-7-22,88,76,70,77,73,70,99,88,68,30.00,29.86,3,0,11,0.27
2013-7-23,84,76,71,74,71,69,96,85,67,29.96,29.81,4,1,9,0.00
2013-7-24,88,77,70,76,72,69,97,86,67,29.88,29.78,3,0,7,0.00
2013-7-25,92,79,69,75,71,68,97,78,50,29.97,29.81,4,0,6,0.00
2013-7-26,86,76,68,77,72,67,97,87,67,30.04,29.94,2,0,4,0.00
2013-7-27,81,76,71,73,71,69,99,87,69,29.98,29.89,3,0,5,0.00
2013-7-28,88,76,70,75,71,68,99,83,56,30.01,29.91,2,0,5,0.26
2013-7-29,89,76,66,71,65,53,99,73,32,30.14,30.00,2,0,6,0.26
2013-7-30,95,77,62,69,63,55,97,68,28,30.18,30.08,2,0,4,0.00
2013-7-31,81,74,70,75,71,67,98,91,71,30.12,29.95,2,0,5,0.60
2013-8-1,88,78,72,76,73,70,98,84,60,29.98,29.89,4,0,6,0.01
2013-8-2,92,78,67,74,69,66,98,76,46,30.01,29.90,3,0,5,0.01
2013-8-3,88,77,68,74,70,67,98,80,55,30.04,29.97,3,0,7,0.00
2013-8-4,91,80,74,75,72,69,96,79,48,30.01,29.92,4,0,9,0.00
2013-8-5,89,77,69,76,70,66,93,79,54,30.03,29.94,2,0,7,0.00
2013-8-6,91,79,73,77,72,68,98,82,54,29.98,29.92,2,0,6,0.11
2013-8-7,84,76,74,79,75,73,99,97,83,30.03,29.95,1,0,2,1.26
2013-8-8,83,76,73,78,75,73,100,96,85,30.04,29.97,1,0,6,0.03
2013-8-9,91,80,72,79,75,73,100,84,57,30.07,29.98,4,0,6,0.03
2013-8-10,91,79,73,78,75,72,99,88,61,30.10,30.03,2,0,6,0.10
2013-8-11,92,80,72,77,74,72,100,82,52,30.14,30.03,2,0,6,0.10
2013-8-12,90,78,72,78,74,72,99,88,62,30.08,29.97,3,0,8,0.43
2013-8-13,89,78,71,76,73,71,100,87,62,30.00,29.86,2,0,9,0.02
2013-8-14,85,75,70,75,72,68,97,89,68,29.99,29.86,1,0,5,0.07
2013-8-15,76,70,68,68,64,59,95,80,59,30.06,29.97,6,1,12,0.07
2013-8-16,68,65,62,64,62,60,97,90,77,30.10,30.02,5,1,12,0.09
2013-8-17,66,64,61,65,63,60,99,96,86,30.14,30.08,4,0,9,0.09
2013-8-18,75,69,65,73,68,65,100,97,86,30.19,30.09,2,0,5,0.23
2013-8-19,81,73,69,76,71,68,100,95,81,30.13,30.03,3,0,9,0.04
2013-8-20,82,74,70,77,72,70,99,94,80,30.16,30.06,3,0,9,0.05
2013-8-21,84,74,69,76,72,69,99,94,76,30.22,30.10,2,0,5,0.20
2013-8-22,90,76,69,77,72,69,100,88,55,30.15,30.02,4,0,8,0.27
2013-8-23,92,78,69,77,72,69,100,85,54,30.07,29.95,2,0,6,0.27
2013-8-24,84,75,69,72,69,67,98,82,63,30.23,30.00,6,1,11,0.00
2013-8-25,82,73,64,68,64,61,93,75,54,30.34,30.22,4,0,12,0.00
2013-8-26,84,71,60,66,63,59,98,77,49,30.30,30.14,5,0,7,0.00
2013-8-27,90,75,63,71,67,62,97,78,49,30.16,30.02,3,0,4,0.00
2013-8-28,91,78,69,75,71,68,97,80,51,30.04,29.95,3,0,5,0.00
2013-8-29,93,81,72,77,74,71,96,79,54,29.98,29.89,5,1,8,0.00
2013-8-30,88,78,73,77,75,72,96,88,70,30.00,29.89,2,0,8,0.00
2013-8-31,92,80,72,78,74,71,99,85,55,29.95,29.84,2,0,8,0.00
2013-9-1,84,74,71,78,73,70,100,96,74,29.91,29.83,2,0,6,0.71
2013-9-2,82,74,70,76,72,70,100,94,74,29.96,29.85,2,0,5,0.14
2013-9-3,90,78,71,76,72,70,99,84,55,29.96,29.86,3,0,6,0.14
2013-9-4,91,77,67,74,69,67,99,79,48,30.07,29.94,1,0,4,0.00
2013-9-5,90,77,68,73,70,67,98,80,50,30.11,30.03,3,0,4,0.00
2013-9-6,88,75,66,71,68,66,98,80,58,30.13,30.03,3,0,13,0.00
2013-9-7,89,75,65,70,67,64,98,78,49,30.11,29.98,3,0,5,0.00
2013-9-8,90,77,66,73,69,65,99,78,47,30.01,29.91,4,0,7,0.00
2013-9-9,90,78,68,73,70,68,97,78,52,30.09,29.96,2,0,6,0.00
2013-9-10,88,77,68,75,70,67,97,81,57,30.20,30.09,4,0,6,0.00
2013-9-11,91,77,66,73,68,65,98,77,44,30.20,30.07,2,0,6,0.00
2013-9-12,90,78,69,71,69,66,93,74,50,30.09,29.88,3,0,7,0.00
2013-9-13,88,76,65,70,65,57,93,71,43,29.90,29.78,5,0,10,0.00
2013-9-14,83,68,55,62,57,53,94,72,44,30.06,29.88,8,0,10,0.00
2013-9-15,84,72,61,72,66,59,95,83,63,30.15,30.06,3,0,7,0.00
2013-9-16,89,76,67,73,66,60,97,75,42,30.13,30.03,2,0,5,0.00
2013-9-17,78,71,66,64,63,61,90,76,60,30.21,30.08,8,1,12,0.00
2013-9-18,78,70,65,65,62,59,90,76,61,30.23,30.12,5,0,8,0.00
2013-9-19,86,71,59,66,63,59,97,78,48,30.18,30.06,3,0,3,0.00
2013-9-20,88,74,62,69,65,61,97,76,47,30.07,29.89,2,0,5,0.00
2013-9-21,73,69,64,71,67,64,99,93,79,29.91,29.70,3,0,6,1.57
2013-9-22,81,67,58,66,62,58,99,84,55,29.87,29.75,2,0,6,1.57
2013-9-23,82,68,59,66,61,58,98,80,52,30.00,29.87,4,0,6,0.00
2013-9-24,70,67,64,65,63,61,98,88,77,30.02,29.88,4,0,6,0.04
2013-9-25,66,64,63,65,64,62,99,98,93,29.89,29.82,4,0,7,0.41
2013-9-26,79,67,59,67,63,59,100,88,65,30.00,29.87,3,0,6,0.42
2013-9-27,78,68,58,66,60,57,97,79,53,30.13,30.00,4,0,9,0.00
2013-9-28,75,64,55,60,57,55,97,80,55,30.21,30.10,6,0,9,0.00
2013-9-29,75,63,54,59,56,53,97,81,54,30.15,30.03,5,0,7,0.00
2013-9-30,78,65,54,62,58,54,98,81,53,30.09,29.99,1,0,5,0.00
2013-10-1,80,67,56,66,61,55,98,82,56,30.16,30.04,2,0,4,0.00
2013-10-2,84,70,59,66,62,58,99,81,48,30.15,30.05,3,0,4,0.00
2013-10-3,84,72,63,67,64,62,97,78,48,30.13,30.05,1,0,3,0.00
2013-10-4,85,71,60,68,64,60,98,81,53,30.15,30.06,1,0,4,0.00
2013-10-5,86,73,61,69,65,61,99,80,50,30.12,30.00,2,0,6,0.00
2013-10-6,84,70,62,70,65,61,99,85,57,30.02,29.84,3,0,8,1.74
2013-10-7,74,64,57,66,60,53,99,87,62,29.95,29.80,4,1,9,2.33
2013-10-8,72,64,56,60,56,52,93,77,62,30.14,29.95,6,1,12,0.00
2013-10-9,76,64,55,59,53,46,91,71,46,30.19,30.09,3,0,9,0.00
2013-10-10,79,64,54,62,57,53,98,80,50,30.14,30.00,6,0,10,0.00
2013-10-11,79,65,55,60,57,54,98,77,48,30.05,29.96,3,0,11,0.00
2013-10-12,80,67,56,63,59,55,97,77,52,30.08,29.98,4,0,8,0.00
2013-10-13,80,68,58,65,61,57,96,81,50,30.18,30.07,4,0,6,0.00
2013-10-14,73,67,62,64,63,61,98,86,72,30.19,30.10,4,0,10,0.00
2013-10-15,67,64,62,62,60,59,92,87,78,30.14,30.04,6,0,6,0.00
2013-10-16,74,65,57,65,60,56,98,87,66,30.06,29.95,1,0,3,0.00
2013-10-17,69,65,60,68,64,60,99,97,92,29.96,29.87,2,0,8,0.43
2013-10-18,69,59,52,59,55,52,100,87,60,30.02,29.92,1,0,4,0.01
2013-10-19,62,58,55,59,56,54,98,93,86,29.98,29.92,3,0,3,0.05
2013-10-20,69,54,44,54,47,40,99,79,35,30.07,29.98,2,0,4,0.05
2013-10-21,70,56,45,59,52,44,98,87,58,30.14,30.02,1,0,3,0.00
2013-10-22,70,61,58,59,57,52,99,86,56,30.04,29.85,1,0,3,0.01
2013-10-23,60,53,43,52,44,36,93,73,43,30.09,29.83,8,1,13,0.00
2013-10-24,63,50,39,44,39,36,92,71,39,30.21,30.08,2,0,5,0.00
2013-10-25,58,45,35,44,34,26,86,66,31,30.39,30.21,3,0,6,0.00
2013-10-26,60,45,32,42,36,31,95,72,41,30.36,30.18,3,0,6,0.00
2013-10-27,68,54,42,57,48,38,96,80,60,30.19,30.11,1,0,4,0.00
2013-10-28,65,58,54,59,56,54,99,93,77,30.27,30.13,0,0,2,0.07
2013-10-29,74,62,52,61,57,52,100,86,59,30.33,30.23,0,0,2,0.07
2013-10-30,77,64,54,61,58,54,99,83,54,30.30,30.15,2,0,4,0.00
2013-10-31,74,67,60,65,60,54,85,79,72,30.17,29.85,2,0,7,0.00
2013-11-1,74,67,57,66,59,49,98,78,44,29.85,29.70,4,0,8,0.19
2013-11-2,68,57,50,49,45,40,87,65,38,30.06,29.80,6,0,8,0.19
2013-11-3,64,51,42,45,40,32,93,71,32,30.32,30.06,3,0,5,0.00
2013-11-4,61,50,40,43,38,-100,95,70,43,30.45,30.32,4,0,9,0.00
2013-11-5,62,52,43,47,39,35,81,62,39,30.48,30.34,5,1,12,0.00
2013-11-6,72,59,50,60,54,47,96,85,64,30.35,30.11,5,0,7,0.00
2013-11-7,62,55,44,61,50,35,99,82,61,30.21,30.03,6,1,13,0.03
2013-11-8,62,47,37,37,32,26,84,60,27,30.35,30.21,1,0,8,0.03
2013-11-9,58,47,36,44,38,34,93,73,42,30.38,30.25,0,0,2,0.00
2013-11-10,70,56,46,45,42,39,88,62,38,30.30,30.19,4,0,8,0.00
2013-11-11,66,51,39,42,37,31,93,63,30,30.32,30.19,3,0,9,0.00
2013-11-12,61,46,31,44,34,19,89,66,44,30.46,30.15,6,1,17,0.00
2013-11-13,51,36,25,28,19,11,81,55,23,30.61,30.47,2,0,5,0.00
2013-11-14,60,40,26,30,25,20,94,62,21,30.53,30.34,1,0,5,0.00
2013-11-15,50,45,36,47,39,28,99,81,54,30.35,30.18,2,0,4,0.27
2013-11-16,61,54,47,58,53,47,99,96,86,30.25,30.15,4,0,7,0.27
2013-11-17,68,62,58,67,61,56,100,97,94,30.18,29.92,3,0,6,0.08
2013-11-18,69,62,49,68,49,33,99,66,32,30.04,29.88,6,1,10,0.08
2013-11-19,60,50,40,37,34,29,74,56,40,30.18,30.02,3,0,5,0.00
2013-11-20,55,48,41,37,32,28,68,55,45,30.36,30.19,8,1,11,0.00
2013-11-21,54,50,47,48,43,35,90,76,58,30.42,30.33,7,1,11,0.00
2013-11-22,64,56,50,59,54,48,99,93,81,30.37,30.18,2,0,5,0.07
2013-11-23,59,52,39,59,47,29,99,84,63,30.26,30.13,5,1,9,0.08
2013-11-24,48,37,29,29,19,13,70,52,26,30.49,30.25,3,0,6,0.00
2013-11-25,44,37,29,26,17,11,63,46,33,30.51,30.25,5,1,10,0.00
2013-11-26,48,39,33,48,38,27,99,97,67,30.24,29.67,4,1,8,1.13
2013-11-27,43,34,27,43,28,19,98,79,56,30.30,29.68,8,2,15,0.01
2013-11-28,48,33,22,28,21,19,89,66,32,30.51,30.29,2,0,3,0.00
2013-11-29,60,42,27,32,25,11,94,58,17,30.56,30.46,2,0,4,0.00
2013-11-30,50,42,35,30,28,26,72,57,40,30.58,30.37,6,1,10,0.00
2013-12-1,57,46,38,41,35,27,87,66,53,30.37,30.04,2,0,5,0.00
2013-12-2,51,48,44,51,47,41,99,95,86,30.04,29.84,1,0,2,0.36
2013-12-3,56,53,50,56,53,50,100,99,97,29.92,29.84,1,0,3,0.20
2013-12-4,71,61,54,65,59,54,100,96,79,30.03,29.91,1,0,4,0.03
2013-12-5,72,67,64,69,66,63,100,98,91,30.07,29.96,3,0,5,1.21
2013-12-6,74,68,56,68,66,55,99,91,81,30.04,29.95,6,1,16,0.11
2013-12-7,56,44,41,55,43,40,100,94,85,30.32,30.04,5,1,6,0.12
2013-12-8,50,44,40,49,44,40,100,99,98,30.31,30.21,9,1,10,0.33
2013-12-9,49,43,39,49,43,39,100,100,99,30.23,30.04,6,0,8,0.42
2013-12-10,50,43,30,50,40,28,100,87,58,30.36,29.97,12,1,13,0.03
2013-12-11,52,38,26,34,29,25,99,72,40,30.47,30.34,1,0,3,0.03
2013-12-12,44,36,30,30,24,18,83,62,41,30.48,30.38,6,1,8,0.00
2013-12-13,55,40,26,31,23,18,83,53,25,30.42,30.20,1,0,4,0.00
2013-12-14,50,47,43,50,43,30,100,89,55,30.21,29.83,2,0,7,0.83
2013-12-15,50,39,31,50,36,29,100,87,77,30.22,29.85,8,2,11,0.01
2013-12-16,52,40,30,35,30,28,96,72,40,30.30,30.21,4,0,8,0.01
2013-12-17,60,47,32,38,34,30,95,65,38,30.26,30.10,8,1,12,0.00
2013-12-18,51,42,34,32,24,17,74,51,27,30.35,30.20,5,1,12,0.00
2013-12-19,62,44,28,35,29,23,96,61,25,30.36,30.22,2,0,3,0.00
2013-12-20,62,49,37,52,43,31,93,78,64,30.25,30.13,2,0,4,0.00
2013-12-21,69,61,51,65,59,50,99,93,88,30.12,29.93,4,0,6,0.01
2013-12-22,69,60,56,66,58,-100,100,96,88,30.06,29.88,4,-10,7,2.40
2013-12-23,57,48,36,57,46,32,100,92,84,30.26,30.03,7,2,12,2.42
2013-12-24,38,33,27,31,25,21,89,75,53,30.43,30.25,6,1,10,0.00
2013-12-25,43,34,25,25,21,18,86,61,43,30.52,30.38,4,0,7,0.00
2013-12-26,53,40,29,29,27,23,84,61,37,30.42,30.30,4,0,6,0.00
2013-12-27,51,38,28,34,29,27,94,72,42,30.49,30.35,3,0,6,0.00
2013-12-28,46,38,31,39,34,30,97,87,59,30.43,30.03,7,1,12,0.86
2013-12-29,48,44,40,46,43,39,99,95,88,30.07,29.89,5,1,9,1.10
2013-12-30,48,44,40,43,41,38,98,92,83,30.23,30.06,4,1,6,0.00
2013-12-31,45,39,33,38,31,23,93,75,43,30.40,30.22,4,1,8,0.00
2014-1-1,49,40,32,39,33,29,93,77,57,30.39,30.16,1,0,4,0.00
2014-1-2,50,41,25,50,39,17,99,90,70,30.16,29.78,8,2,15,0.17